createdAt,value
2019-02-14T00:01:54.934Z,102302.07
2019-02-14T00:04:23.677Z,102300.75
2019-02-14T00:06:52.457Z,102307.78
2019-02-14T00:09:21.202Z,102310.88
2019-02-14T00:11:49.959Z,102317.91
2019-02-14T00:14:18.700Z,102322.75
2019-02-14T00:16:47.463Z,102321.44
2019-02-14T00:19:16.273Z,102324.51
2019-02-14T00:21:45.177Z,102323.61
2019-02-14T00:24:13.928Z,102328.04
2019-02-14T00:26:42.763Z,102319.68
2019-02-14T00:29:11.503Z,102321.46
2019-02-14T00:31:40.280Z,102317.94
2019-02-14T00:34:09.116Z,102318.37
2019-02-14T00:36:37.888Z,102310.95
2019-02-14T00:39:06.783Z,102300.41
2019-02-14T00:41:35.566Z,102303.47
2019-02-14T00:44:04.442Z,102303.91
2019-02-14T00:46:33.225Z,102307.86
2019-02-14T00:49:02.113Z,102305.23
2019-02-14T00:51:30.875Z,102311.41
2019-02-14T00:53:59.690Z,102302.18
2019-02-14T00:56:28.451Z,102296.92
2019-02-14T00:58:57.271Z,102300.87
2019-02-14T01:01:26.030Z,102299.99
2019-02-14T01:03:54.875Z,102294.73
2019-02-14T01:06:23.644Z,102295.61
2019-02-14T01:08:52.453Z,102294.73
2019-02-14T01:11:21.239Z,102296.06
2019-02-14T01:13:49.969Z,102295.21
2019-02-14T01:16:18.744Z,102291.69
2019-02-14T01:18:47.484Z,102289.50
2019-02-14T01:21:16.238Z,102297.40
2019-02-14T01:23:45.004Z,102286.88
2019-02-14T01:26:13.867Z,102282.49
2019-02-14T01:28:42.598Z,102282.50
2019-02-14T01:31:11.340Z,102286.03
2019-02-14T01:33:40.129Z,102290.84
2019-02-14T01:36:08.864Z,102289.11
2019-02-14T01:38:37.634Z,102283.42
2019-02-14T01:41:06.367Z,102293.07
2019-02-14T01:43:35.209Z,102293.07
2019-02-14T01:46:04.015Z,102286.06
2019-02-14T01:48:32.821Z,102301.87
2019-02-14T01:51:01.715Z,102295.72
2019-02-14T01:53:30.643Z,102298.35
2019-02-14T01:55:59.380Z,102299.68
2019-02-14T01:58:28.282Z,102298.37
2019-02-14T02:00:57.110Z,102298.37
2019-02-14T02:03:25.868Z,102300.58
2019-02-14T02:05:54.683Z,102296.62
2019-02-14T02:08:23.444Z,102295.75
2019-02-14T02:10:52.279Z,102300.17
2019-02-14T02:13:21.040Z,102293.12
2019-02-14T02:15:49.775Z,102290.07
2019-02-14T02:18:18.895Z,102299.29
2019-02-14T02:20:47.652Z,102285.24
2019-02-14T02:23:16.497Z,102272.97
2019-02-14T02:25:45.233Z,102278.23
2019-02-14T02:28:14.013Z,102281.77
2019-02-14T02:30:42.822Z,102287.89
2019-02-14T02:33:11.785Z,102285.23
2019-02-14T02:35:40.528Z,102295.34
2019-02-14T02:38:09.317Z,102289.19
2019-02-14T02:40:38.051Z,102283.92
2019-02-14T02:43:06.904Z,102290.50
2019-02-14T02:45:35.642Z,102294.46
2019-02-14T02:48:04.409Z,102302.83
2019-02-14T02:50:33.307Z,102301.06
2019-02-14T02:53:02.159Z,102302.38
2019-02-14T02:55:30.894Z,102301.07
2019-02-14T02:57:59.740Z,102301.07
2019-02-14T03:00:28.504Z,102300.22
2019-02-14T03:02:57.311Z,102311.19
2019-02-14T03:05:26.244Z,102304.19
2019-02-14T03:07:55.031Z,102303.71
2019-02-14T03:10:23.894Z,102301.55
2019-02-14T03:12:52.625Z,102305.92
2019-02-14T03:15:21.386Z,102303.72
2019-02-14T03:17:50.276Z,102305.51
2019-02-14T03:20:19.132Z,102311.63
2019-02-14T03:22:47.935Z,102307.24
2019-02-14T03:25:17.508Z,102310.77
2019-02-14T03:27:46.335Z,102311.20
2019-02-14T03:30:15.496Z,102313.83
2019-02-14T03:32:44.264Z,102312.95
2019-02-14T03:35:13.024Z,102306.84
2019-02-14T03:37:41.913Z,102305.52
2019-02-14T03:40:11.386Z,102311.64
2019-02-14T03:42:40.275Z,102306.38
2019-02-14T03:45:15.003Z,102311.22
2019-02-14T03:47:43.837Z,102316.06
2019-02-14T03:50:12.657Z,102320.45
2019-02-14T03:52:41.467Z,102312.12
2019-02-14T03:55:10.361Z,102311.66
2019-02-14T03:57:39.195Z,102322.66
2019-02-14T04:00:11.115Z,102315.61
2019-02-14T04:02:39.925Z,102315.19
2019-02-14T04:05:08.858Z,102308.63
2019-02-14T04:07:37.673Z,102308.19
2019-02-14T04:10:07.294Z,102311.68
2019-02-14T04:12:36.128Z,102313.00
2019-02-14T04:15:05.305Z,102314.31
2019-02-14T04:17:34.038Z,102313.45
2019-02-14T04:20:02.785Z,102313.00
2019-02-14T04:22:31.629Z,102312.58
2019-02-14T04:25:00.364Z,102315.22
2019-02-14T04:27:29.132Z,102320.91
2019-02-14T04:29:57.871Z,102318.73
2019-02-14T04:32:26.641Z,102330.12
2019-02-14T04:34:55.412Z,102330.58
2019-02-14T04:37:24.252Z,102332.75
2019-02-14T04:39:53.056Z,102327.06
2019-02-14T04:42:21.833Z,102331.90
2019-02-14T04:44:50.632Z,102323.55
2019-02-14T04:47:19.471Z,102330.12
2019-02-14T04:49:48.220Z,102327.95
2019-02-14T04:52:17.086Z,102323.12
2019-02-14T04:54:45.893Z,102319.59
2019-02-14T04:57:14.732Z,102324.42
2019-02-14T04:59:43.612Z,102318.73
2019-02-14T05:02:12.480Z,102319.17
2019-02-14T05:04:41.277Z,102324.00
2019-02-14T05:07:10.108Z,102317.84
2019-02-14T05:09:38.928Z,102317.84
2019-02-14T05:12:07.760Z,102323.53
2019-02-14T05:14:36.570Z,102327.05
2019-02-14T05:17:05.411Z,102326.62
2019-02-14T05:19:34.211Z,102322.67
2019-02-14T05:22:02.993Z,102330.11
2019-02-14T05:24:31.806Z,102324.84
2019-02-14T05:27:00.729Z,102337.58
2019-02-14T05:29:29.466Z,102343.27
2019-02-14T05:31:58.372Z,102344.58
2019-02-14T05:34:27.131Z,102343.26
2019-02-14T05:36:55.965Z,102344.57
2019-02-14T05:39:24.702Z,102344.56
2019-02-14T05:41:53.563Z,102345.88
2019-02-14T05:44:22.286Z,102339.30
2019-02-14T05:46:51.102Z,102339.30
2019-02-14T05:49:21.016Z,102342.39
2019-02-14T05:51:49.825Z,102346.33
2019-02-14T05:54:18.655Z,102348.50
2019-02-14T05:56:47.401Z,102357.28
2019-02-14T05:59:16.304Z,102352.91
2019-02-14T06:01:45.032Z,102356.39
2019-02-14T06:04:13.878Z,102362.55
2019-02-14T06:06:42.696Z,102366.48
2019-02-14T06:09:11.537Z,102357.27
2019-02-14T06:11:40.349Z,102347.63
2019-02-14T06:14:09.113Z,102348.47
2019-02-14T06:16:37.942Z,102367.36
2019-02-14T06:19:06.713Z,102374.37
2019-02-14T06:21:35.477Z,102373.94
2019-02-14T06:24:04.250Z,102358.14
2019-02-14T06:26:33.053Z,102352.88
2019-02-14T06:29:01.815Z,102351.09
2019-02-14T06:31:30.565Z,102364.71
2019-02-14T06:33:59.367Z,102367.34
2019-02-14T06:36:28.170Z,102375.23
2019-02-14T06:38:57.096Z,102379.20
2019-02-14T06:41:27.178Z,102381.36
2019-02-14T06:43:55.974Z,102375.12
2019-02-14T06:46:24.740Z,102385.09
2019-02-14T06:48:53.601Z,102391.23
2019-02-14T06:51:22.447Z,102397.75
2019-02-14T06:53:51.307Z,102399.39
2019-02-14T06:56:20.140Z,102393.98
2019-02-14T06:58:48.994Z,102401.30
2019-02-14T07:01:17.775Z,102388.38
2019-02-14T07:03:46.637Z,102388.68
2019-02-14T07:06:15.647Z,102388.50
2019-02-14T07:08:44.495Z,102375.87
2019-02-14T07:11:13.263Z,102383.94
2019-02-14T07:13:42.128Z,102389.99
2019-02-14T07:16:10.961Z,102398.44
2019-02-14T07:18:39.837Z,102401.66
2019-02-14T07:21:08.593Z,102411.02
2019-02-14T07:23:37.453Z,102415.92
2019-02-14T07:26:06.307Z,102412.47
2019-02-14T07:28:35.166Z,102420.41
2019-02-14T07:31:04.026Z,102427.45
2019-02-14T07:33:32.954Z,102423.91
2019-02-14T07:36:01.741Z,102417.68
2019-02-14T07:38:30.505Z,102422.90
2019-02-14T07:40:59.352Z,102427.63
2019-02-14T07:43:28.289Z,102425.36
2019-02-14T07:45:57.136Z,102423.06
2019-02-14T07:48:26.057Z,102416.36
2019-02-14T07:50:54.841Z,102416.26
2019-02-14T07:53:23.701Z,102416.82
2019-02-14T07:55:52.519Z,102412.89
2019-02-14T07:58:21.343Z,102418.70
2019-02-14T08:00:50.277Z,102431.67
2019-02-14T08:03:19.038Z,102430.45
2019-02-14T08:05:47.853Z,102421.89
2019-02-14T08:08:16.614Z,102414.58
2019-02-14T08:10:45.404Z,102418.25
2019-02-14T08:13:14.177Z,102416.11
2019-02-14T08:15:42.985Z,102416.16
2019-02-14T08:18:11.731Z,102420.15
2019-02-14T08:20:40.510Z,102425.47
2019-02-14T08:23:09.265Z,102423.70
2019-02-14T08:25:38.047Z,102428.13
2019-02-14T08:28:07.283Z,102429.05
2019-02-14T08:30:36.307Z,102433.91
2019-02-14T08:33:05.374Z,102442.73
2019-02-14T08:35:34.442Z,102444.08
2019-02-14T08:38:03.266Z,102444.08
2019-02-14T08:40:32.148Z,102440.53
2019-02-14T08:43:01.208Z,102428.20
2019-02-14T08:45:30.059Z,102423.82
2019-02-14T08:47:58.942Z,102421.59
2019-02-14T08:50:28.212Z,102416.30
2019-02-14T08:52:57.071Z,102420.70
2019-02-14T08:55:26.029Z,102421.78
2019-02-14T08:57:54.919Z,102417.57
2019-02-14T09:00:23.776Z,102421.03
2019-02-14T09:02:52.948Z,102420.41
2019-02-14T09:05:21.862Z,102422.81
2019-02-14T09:07:54.820Z,102423.82
2019-02-14T09:10:21.444Z,102423.48
2019-02-14T09:12:50.545Z,102430.66
2019-02-14T09:15:19.684Z,102434.75
2019-02-14T09:17:48.840Z,102430.92
2019-02-14T09:20:17.779Z,102431.02
2019-02-14T09:22:46.572Z,102428.46
2019-02-14T09:25:15.322Z,102432.05
2019-02-14T09:27:44.231Z,102432.08
2019-02-14T09:30:13.131Z,102437.81
2019-02-14T09:32:42.255Z,102444.88
2019-02-14T09:35:11.031Z,102450.20
2019-02-14T09:37:39.893Z,102451.55
2019-02-14T09:40:10.032Z,102452.46
2019-02-14T09:42:38.852Z,102453.78
2019-02-14T09:45:08.750Z,102453.54
2019-02-14T09:47:37.532Z,102453.61
2019-02-14T09:50:07.172Z,102453.80
2019-02-14T09:52:35.950Z,102448.27
2019-02-14T09:55:05.287Z,102437.45
2019-02-14T09:57:34.135Z,102441.57
2019-02-14T10:00:02.893Z,102452.60
2019-02-14T10:02:31.694Z,102455.28
2019-02-14T10:05:00.435Z,102451.78
2019-02-14T10:07:29.303Z,102443.89
2019-02-14T10:09:58.062Z,102431.97
2019-02-14T10:12:26.854Z,102433.56
2019-02-14T10:14:55.610Z,102437.89
2019-02-14T10:17:24.483Z,102438.27
2019-02-14T10:19:53.322Z,102431.16
2019-02-14T10:22:22.158Z,102436.91
2019-02-14T10:24:52.555Z,102433.77
2019-02-14T10:27:21.787Z,102443.47
2019-02-14T10:29:50.605Z,102443.91
2019-02-14T10:32:19.551Z,102445.17
2019-02-14T10:34:48.434Z,102440.23
2019-02-14T10:37:17.255Z,102445.05
2019-02-14T10:39:46.299Z,102438.83
2019-02-14T10:42:15.203Z,102422.47
2019-02-14T10:44:44.140Z,102432.52
2019-02-14T10:47:12.970Z,102443.04
2019-02-14T10:49:41.883Z,102440.77
2019-02-14T10:52:10.934Z,102434.97
2019-02-14T10:54:39.772Z,102434.05
2019-02-14T10:57:08.598Z,102438.82
2019-02-14T10:59:37.404Z,102428.11
2019-02-14T11:02:06.151Z,102425.84
2019-02-14T11:04:35.000Z,102429.32
2019-02-14T11:07:03.763Z,102430.59
2019-02-14T11:09:32.540Z,102431.06
2019-02-14T11:12:01.289Z,102427.02
2019-02-14T11:14:30.057Z,102431.84
2019-02-14T11:16:58.906Z,102426.11
2019-02-14T11:19:27.703Z,102423.46
2019-02-14T11:21:56.589Z,102420.33
2019-02-14T11:24:25.430Z,102419.83
2019-02-14T11:26:54.248Z,102414.58
2019-02-14T11:29:23.031Z,102409.34
2019-02-14T11:31:51.800Z,102414.66
2019-02-14T11:34:20.653Z,102411.16
2019-02-14T11:36:49.403Z,102415.98
2019-02-14T11:39:18.176Z,102417.28
2019-02-14T11:41:47.008Z,102412.80
2019-02-14T11:44:15.894Z,102407.08
2019-02-14T11:46:51.320Z,102405.69
2019-02-14T11:49:15.304Z,102393.30
2019-02-14T11:51:44.040Z,102392.36
2019-02-14T11:54:14.107Z,102388.75
2019-02-14T11:56:42.899Z,102385.50
2019-02-14T11:59:11.784Z,102384.06
2019-02-14T12:01:40.611Z,102396.28
2019-02-14T12:04:09.469Z,102393.97
2019-02-14T12:06:38.242Z,102380.13
2019-02-14T12:09:07.133Z,102368.64
2019-02-14T12:11:35.886Z,102364.58
2019-02-14T12:14:04.748Z,102366.70
2019-02-14T12:16:33.591Z,102367.11
2019-02-14T12:19:02.441Z,102359.54
2019-02-14T12:21:31.190Z,102365.63
2019-02-14T12:24:01.647Z,102350.67
2019-02-14T12:26:30.573Z,102346.66
2019-02-14T12:28:59.529Z,102344.42
2019-02-14T12:31:28.376Z,102343.06
2019-02-14T12:34:01.576Z,102348.31
2019-02-14T12:36:30.484Z,102342.94
2019-02-14T12:38:59.207Z,102334.92
2019-02-14T12:41:27.993Z,102330.03
2019-02-14T12:43:56.845Z,102330.47
2019-02-14T12:46:25.851Z,102321.20
2019-02-14T12:48:54.606Z,102315.86
2019-02-14T12:51:23.481Z,102315.34
2019-02-14T12:53:52.305Z,102316.58
2019-02-14T12:56:22.893Z,102314.73
2019-02-14T12:58:51.758Z,102312.46
2019-02-14T13:01:22.016Z,102316.44
2019-02-14T13:03:50.853Z,102309.78
2019-02-14T13:06:19.741Z,102302.30
2019-02-14T13:08:49.045Z,102299.98
2019-02-14T13:11:18.547Z,102299.47
2019-02-14T13:13:49.981Z,102296.38
2019-02-14T13:16:19.153Z,102300.22
2019-02-14T13:18:48.227Z,102289.64
2019-02-14T13:21:17.286Z,102294.41
2019-02-14T13:23:46.041Z,102286.00
2019-02-14T13:26:14.932Z,102281.50
2019-02-14T13:28:44.207Z,102278.81
2019-02-14T13:31:12.981Z,102279.19
2019-02-14T13:33:41.802Z,102275.95
2019-02-14T13:36:10.597Z,102275.80
2019-02-14T13:38:39.500Z,102280.44
2019-02-14T13:41:08.264Z,102275.50
2019-02-14T13:43:37.107Z,102273.63
2019-02-14T13:46:05.872Z,102279.33
2019-02-14T13:48:34.610Z,102274.46
2019-02-14T13:51:03.378Z,102280.66
2019-02-14T13:53:32.112Z,102280.14
2019-02-14T13:56:00.890Z,102266.83
2019-02-14T13:58:29.714Z,102264.50
2019-02-14T14:00:58.500Z,102269.69
2019-02-14T14:03:27.241Z,102264.83
2019-02-14T14:05:55.999Z,102263.90
2019-02-14T14:08:24.736Z,102271.34
2019-02-14T14:10:53.495Z,102276.21
2019-02-14T14:13:22.245Z,102273.40
2019-02-14T14:15:51.041Z,102268.89
2019-02-14T14:18:19.794Z,102268.41
2019-02-14T14:20:48.611Z,102270.06
2019-02-14T14:23:17.450Z,102262.98
2019-02-14T14:25:46.318Z,102262.48
2019-02-14T14:28:21.212Z,102254.52
2019-02-14T14:30:55.923Z,102261.00
2019-02-14T14:33:24.658Z,102257.50
2019-02-14T14:35:53.519Z,102254.72
2019-02-14T14:38:22.344Z,102249.01
2019-02-14T14:40:51.165Z,102250.61
2019-02-14T14:43:39.014Z,102245.53
2019-02-14T14:46:12.440Z,102247.22
2019-02-14T14:48:44.327Z,102247.97
2019-02-14T14:51:13.146Z,102247.93
2019-02-14T14:53:41.954Z,102246.43
2019-02-14T14:56:10.783Z,102243.55
2019-02-14T14:58:39.785Z,102242.14
2019-02-14T15:01:08.501Z,102241.03
2019-02-14T15:03:37.339Z,102247.45
2019-02-14T15:06:06.097Z,102244.13
2019-02-14T15:08:34.942Z,102242.52
2019-02-14T15:11:03.762Z,102237.02
2019-02-14T15:13:32.602Z,102236.23
2019-02-14T15:16:01.440Z,102238.59
2019-02-14T15:18:30.213Z,102238.76
2019-02-14T15:20:58.997Z,102238.91
2019-02-14T15:23:27.845Z,102238.66
2019-02-14T15:25:56.590Z,102238.47
2019-02-14T15:28:25.369Z,102238.27
2019-02-14T15:30:54.109Z,102239.00
2019-02-14T15:33:22.869Z,102235.83
2019-02-14T15:35:51.611Z,102234.22
2019-02-14T15:38:20.373Z,102238.81
2019-02-14T15:40:49.112Z,102238.27
2019-02-14T15:43:17.910Z,102235.56
2019-02-14T15:45:46.801Z,102237.92
2019-02-14T15:48:15.655Z,102238.38
2019-02-14T15:50:44.575Z,102240.13
2019-02-14T15:53:13.450Z,102236.44
2019-02-14T15:55:43.835Z,102236.69
2019-02-14T15:58:11.894Z,102235.53
2019-02-14T16:00:40.678Z,102230.06
2019-02-14T16:03:09.864Z,102232.04
2019-02-14T16:05:40.251Z,102238.43
2019-02-14T16:08:09.153Z,102239.92
2019-02-14T16:10:38.023Z,102252.05
2019-02-14T16:13:09.773Z,102240.70
2019-02-14T16:15:38.678Z,102244.40
2019-02-14T16:18:07.721Z,102250.73
2019-02-14T16:20:36.463Z,102251.36
2019-02-14T16:23:06.431Z,102251.92
2019-02-14T16:25:36.030Z,102251.17
2019-02-14T16:28:05.147Z,102246.02
2019-02-14T16:30:33.983Z,102244.36
2019-02-14T16:33:02.835Z,102248.00
2019-02-14T16:35:31.606Z,102246.77
2019-02-14T16:38:00.415Z,102247.32
2019-02-14T16:40:38.007Z,102241.68
2019-02-14T16:42:59.729Z,102239.57
2019-02-14T16:45:28.544Z,102235.70
2019-02-14T16:47:57.510Z,102240.63
2019-02-14T16:50:26.281Z,102242.94
2019-02-14T16:52:55.168Z,102250.07
2019-02-14T16:55:24.008Z,102245.72
2019-02-14T16:57:52.745Z,102248.47
2019-02-14T17:00:21.518Z,102249.86
2019-02-14T17:02:50.432Z,102253.92
2019-02-14T17:05:19.700Z,102258.41
2019-02-14T17:07:48.637Z,102255.44
2019-02-14T17:10:17.402Z,102261.66
2019-02-14T17:12:46.284Z,102262.19
2019-02-14T17:15:15.273Z,102260.92
2019-02-14T17:17:44.046Z,102262.75
2019-02-14T17:20:12.976Z,102266.31
2019-02-14T17:22:41.874Z,102265.96
2019-02-14T17:25:10.637Z,102266.88
2019-02-14T17:27:39.404Z,102269.17
2019-02-14T17:30:08.631Z,102277.62
2019-02-14T17:32:37.676Z,102275.03
2019-02-14T17:35:06.580Z,102281.27
2019-02-14T17:37:35.391Z,102279.53
2019-02-14T17:40:04.849Z,102277.81
2019-02-14T17:42:33.743Z,102279.64
2019-02-14T17:45:02.600Z,102288.08
2019-02-14T17:47:31.348Z,102281.93
2019-02-14T17:50:00.383Z,102285.08
2019-02-14T17:52:29.180Z,102278.95
2019-02-14T17:54:58.659Z,102278.53
2019-02-14T17:57:28.039Z,102283.88
2019-02-14T17:59:57.377Z,102276.50
2019-02-14T18:02:28.591Z,102279.14
2019-02-14T18:04:57.887Z,102283.14
2019-02-14T18:07:28.174Z,102283.63
2019-02-14T18:09:57.629Z,102288.54
2019-02-14T18:12:27.026Z,102290.33
2019-02-14T18:14:56.702Z,102293.44
2019-02-14T18:17:25.754Z,102288.25
2019-02-14T18:20:02.219Z,102286.48
2019-02-14T18:22:31.417Z,102287.86
2019-02-14T18:25:00.331Z,102288.33
2019-02-14T18:27:29.066Z,102287.94
2019-02-14T18:29:57.908Z,102290.61
2019-02-14T18:32:26.733Z,102284.42
2019-02-14T18:34:55.552Z,102284.03
2019-02-14T18:37:24.433Z,102284.97
2019-02-14T18:39:53.229Z,102287.64
2019-02-14T18:42:22.057Z,102293.83
2019-02-14T18:44:50.981Z,102292.12
2019-02-14T18:47:19.853Z,102293.46
2019-02-14T18:49:48.645Z,102290.42
2019-02-14T18:52:17.635Z,102290.45
2019-02-14T18:54:46.505Z,102296.20
2019-02-14T18:57:15.467Z,102290.50
2019-02-14T18:59:44.355Z,102294.95
2019-02-14T19:02:13.176Z,102293.66
2019-02-14T19:04:42.022Z,102296.79
2019-02-14T19:07:10.990Z,102289.31
2019-02-14T19:09:40.503Z,102295.52
2019-02-14T19:12:09.552Z,102296.41
2019-02-14T19:14:38.504Z,102294.70
2019-02-14T19:17:07.418Z,102287.22
2019-02-14T19:19:36.515Z,102288.59
2019-02-14T19:22:05.413Z,102288.17
2019-02-14T19:24:34.366Z,102290.84
2019-02-14T19:27:03.223Z,102293.51
2019-02-14T19:29:32.001Z,102286.03
2019-02-14T19:32:00.780Z,102282.56
2019-02-14T19:34:29.752Z,102283.02
2019-02-14T19:36:58.612Z,102285.27
2019-02-14T19:39:27.559Z,102282.17
2019-02-14T19:41:56.365Z,102277.81
2019-02-14T19:44:25.397Z,102280.05
2019-02-14T19:46:54.243Z,102282.23
2019-02-14T19:49:23.150Z,102283.19
2019-02-14T19:51:52.043Z,102274.37
2019-02-14T19:54:20.970Z,102285.85
2019-02-14T19:56:49.832Z,102270.47
2019-02-14T19:59:18.752Z,102269.20
2019-02-14T20:01:47.661Z,102269.20
2019-02-14T20:04:16.599Z,102272.33
2019-02-14T20:06:45.549Z,102267.91
2019-02-14T20:09:15.458Z,102269.73
2019-02-14T20:11:44.373Z,102271.92
2019-02-14T20:14:13.307Z,102267.56
2019-02-14T20:16:42.406Z,102269.78
2019-02-14T20:19:11.298Z,102264.05
2019-02-14T20:21:40.352Z,102263.66
2019-02-14T20:24:09.349Z,102261.92
2019-02-14T20:26:38.307Z,102265.91
2019-02-14T20:29:07.224Z,102264.60
2019-02-14T20:31:36.194Z,102261.51
2019-02-14T20:34:04.951Z,102260.68
2019-02-14T20:36:33.819Z,102259.81
2019-02-14T20:39:02.931Z,102258.92
2019-02-14T20:41:46.025Z,102261.16
2019-02-14T20:44:10.642Z,102258.98
2019-02-14T20:46:39.572Z,102253.72
2019-02-14T20:49:08.444Z,102263.87
2019-02-14T20:51:38.709Z,102265.20
2019-02-14T20:54:06.803Z,102266.12
2019-02-14T20:56:35.952Z,102269.65
2019-02-14T20:59:04.863Z,102270.56
2019-02-14T21:01:33.717Z,102269.69
2019-02-14T21:04:02.668Z,102265.74
2019-02-14T21:06:31.568Z,102260.95
2019-02-14T21:09:00.404Z,102267.98
2019-02-14T21:11:29.396Z,102268.44
2019-02-14T21:13:58.137Z,102268.45
2019-02-14T21:16:26.999Z,102270.27
2019-02-14T21:18:55.828Z,102266.32
2019-02-14T21:21:24.640Z,102269.39
2019-02-14T21:23:53.391Z,102268.53
2019-02-14T21:26:22.265Z,102270.75
2019-02-14T21:28:51.195Z,102275.62
2019-02-14T21:31:19.965Z,102273.01
2019-02-14T21:33:48.872Z,102271.69
2019-02-14T21:36:17.678Z,102270.81
2019-02-14T21:38:46.442Z,102268.20
2019-02-14T21:41:15.190Z,102261.20
2019-02-14T21:43:44.121Z,102262.53
2019-02-14T21:46:13.192Z,102262.98
2019-02-14T21:48:42.102Z,102266.06
2019-02-14T21:51:11.079Z,102270.00
2019-02-14T21:53:40.208Z,102267.37
2019-02-14T21:56:09.477Z,102266.54
2019-02-14T21:58:38.663Z,102264.79
2019-02-14T22:01:07.754Z,102263.48
2019-02-14T22:03:36.596Z,102264.80
2019-02-14T22:06:05.404Z,102268.36
2019-02-14T22:08:37.294Z,102267.95
2019-02-14T22:11:06.257Z,102260.91
2019-02-14T22:13:35.084Z,102269.31
2019-02-14T22:16:05.102Z,102267.13
2019-02-14T22:18:33.868Z,102268.44
2019-02-14T22:21:02.608Z,102262.30
2019-02-14T22:23:31.374Z,102265.83
2019-02-14T22:26:00.112Z,102267.60
2019-02-14T22:28:28.881Z,102262.35
2019-02-14T22:30:57.792Z,102263.25
2019-02-14T22:33:26.571Z,102260.20
2019-02-14T22:35:55.394Z,102268.13
2019-02-14T22:38:24.220Z,102267.69
2019-02-14T22:40:53.114Z,102271.63
2019-02-14T22:43:21.933Z,102269.02
2019-02-14T22:45:50.693Z,102272.14
2019-02-14T22:48:19.551Z,102274.33
2019-02-14T22:50:48.298Z,102269.97
2019-02-14T22:53:17.143Z,102272.20
2019-02-14T22:55:45.904Z,102273.05
2019-02-14T22:58:14.738Z,102272.63
2019-02-14T23:00:50.866Z,102273.98
2019-02-14T23:03:19.633Z,102277.52
2019-02-14T23:05:48.386Z,102276.63
2019-02-14T23:08:17.393Z,102274.01
2019-02-14T23:10:46.161Z,102278.39
2019-02-14T23:13:14.960Z,102274.02
2019-02-14T23:15:43.834Z,102274.02
2019-02-14T23:18:12.713Z,102275.37
2019-02-14T23:20:41.469Z,102274.95
2019-02-14T23:23:10.415Z,102275.00
2019-02-14T23:25:39.160Z,102275.88
2019-02-14T23:28:08.110Z,102280.70
2019-02-14T23:30:37.005Z,102280.28
2019-02-14T23:33:05.789Z,102281.62
2019-02-14T23:35:34.606Z,102287.33
2019-02-14T23:38:03.897Z,102281.16
2019-02-14T23:40:32.661Z,102277.22
2019-02-14T23:43:04.774Z,102272.40
2019-02-14T23:45:32.128Z,102274.16
2019-02-14T23:48:00.948Z,102269.78
2019-02-14T23:50:29.799Z,102270.67
2019-02-14T23:52:58.837Z,102266.30
2019-02-14T23:55:27.711Z,102279.08
2019-02-14T23:57:56.540Z,102266.34
